Sunday, February 17, 2019, 3:07 PM EST
Back to Local

KDDH, Bennington Morse State Airport

Location: Bennington, VT, United States Lat: 42.883
Local Time: 3:07 PM EST (20:07 GMT) Lon: -73.25
Time Zone: US/Eastern Elev: 826 ft

Show me the last for .
Show Coded

Time T Td Feel RH Dir Speed Gust Alt SLP Vis Weather Sky Remarks
2019-02-17 13:54 26 7 18 43 280° 7 - 30.08 30.11 10 CLR None
2019-02-17 12:54 26 9 18 47 260° 7 - 30.06 30.10 10 CLR 6-hr Min Temp (1pm): 12.0°F
6-hr Max Temp (1pm): 26.1°F
2019-02-17 11:54 25 8 19 47 Variable 5 - 30.08 30.12 10 CLR None
2019-02-17 10:54 23 9 15 54 Variable 7 - 30.12 30.15 10 CLR None
2019-02-17 09:54 22 8 17 54 Variable 3 - 30.12 30.16 10 CLR None
2019-02-17 08:54 19 9 12 64 330° 5 - 30.12 30.16 10 CLR None
2019-02-17 07:54 16 9 10 73 360° 3 - 30.12 30.16 10 CLR None
2019-02-17 06:54 12 7 - 79 - Calm - 30.09 30.13 10 CLR 6-hr Min Temp (7am): 10.9°F
6-hr Max Temp (7am): 19.0°F
2019-02-17 05:54 14 7 - 73 - Calm - 30.07 30.11 10 CLR None
2019-02-17 04:54 16 8 10 70 310° 3 - 30.06 30.10 10 CLR None
2019-02-17 03:54 16 8 10 70 300° 3 - 30.04 30.07 10 CLR None
2019-02-17 02:54 18 9 13 67 Variable 3 - 30.04 30.07 10 CLR None
2019-02-17 01:54 18 9 - 67 - Calm - 30.04 30.08 10 CLR None
2019-02-17 00:54 19 10 - 67 - Calm - 30.04 30.07 10 CLR 6-hr Min Temp (1am): 19.0°F
6-hr Max Temp (1am): 25.0°F
2019-02-16 23:54 20 11 13 67 240° 5 - 30.01 30.04 10 CLR 24-hr Min Temp (12am): 19.0°F
24-hr Max Temp (12am): 32.0°F
2019-02-16 22:54 22 10 - 59 - Calm - 30.00 30.03 10 BKN038 None
2019-02-16 21:54 23 10 - 56 - Calm - 29.98 30.01 10 CLR None
2019-02-16 20:54 24 11 15 56 330° 8 - 29.96 29.99 10 CLR None
2019-02-16 19:54 24 13 18 61 Variable 5 - 29.93 29.96 10 FEW039 None
2019-02-16 18:54 25 13 16 59 240° 9 - 29.93 29.96 10 FEW039 6-hr Min Temp (7pm): 25.0°F
6-hr Max Temp (7pm): 32.0°F
2019-02-16 17:54 27 14 18 57 250° 9 - 29.90 29.93 10 CLR None
2019-02-16 16:54 29 15 16 55 280° 12 18 29.87 29.90 10 FEW045 None
2019-02-16 15:54 31 17 19 55 260° 10 18 29.86 29.88 10 OVC045 None

Support USWX by starting your Amazon purchase here.